createdAt,value
2023-05-19T00:00:19.504Z,30.133
2023-05-19T00:05:19.280Z,30.133
2023-05-19T00:10:19.381Z,30.133
2023-05-19T00:15:19.258Z,30.140
2023-05-19T00:20:19.276Z,30.140
2023-05-19T00:25:19.259Z,30.140
2023-05-19T00:30:19.316Z,30.144
2023-05-19T00:35:19.719Z,30.144
2023-05-19T00:40:16.325Z,30.144
2023-05-19T00:45:16.372Z,30.157
2023-05-19T00:50:19.432Z,30.157
2023-05-19T00:55:19.333Z,30.157
2023-05-19T01:00:19.262Z,30.163
2023-05-19T01:05:19.295Z,30.163
2023-05-19T01:10:19.283Z,30.163
2023-05-19T01:15:19.370Z,30.173
2023-05-19T01:20:19.384Z,30.173
2023-05-19T01:25:19.305Z,30.173
2023-05-19T01:30:19.364Z,30.176
2023-05-19T01:35:16.298Z,30.176
2023-05-19T01:40:19.467Z,30.176
2023-05-19T01:45:19.358Z,30.189
2023-05-19T01:50:19.422Z,30.189
2023-05-19T01:55:19.361Z,30.189
2023-05-19T02:00:21.265Z,30.202
2023-05-19T02:05:19.452Z,30.202
2023-05-19T02:10:19.402Z,30.202
2023-05-19T02:15:19.453Z,30.205
2023-05-19T02:20:19.569Z,30.205
2023-05-19T02:25:16.498Z,30.205
2023-05-19T02:30:16.394Z,30.210
2023-05-19T02:35:19.433Z,30.210
2023-05-19T02:40:19.497Z,30.210
2023-05-19T02:45:19.511Z,30.215
2023-05-19T02:50:19.530Z,30.215
2023-05-19T02:55:19.568Z,30.215
2023-05-19T03:00:19.445Z,30.218
2023-05-19T03:05:19.515Z,30.218
2023-05-19T03:10:19.447Z,30.218
2023-05-19T03:15:19.575Z,30.218
2023-05-19T03:20:16.570Z,30.218
2023-05-19T03:25:16.510Z,30.218
2023-05-19T03:30:19.739Z,30.221
2023-05-19T03:35:19.696Z,30.221
2023-05-19T03:40:19.639Z,30.221
2023-05-19T03:45:19.813Z,30.222
2023-05-19T03:50:19.674Z,30.222
2023-05-19T03:55:19.547Z,30.222
2023-05-19T04:00:18.973Z,30.222
2023-05-19T04:05:18.962Z,30.222
2023-05-19T04:10:18.937Z,30.222
2023-05-19T04:15:18.922Z,30.227
2023-05-19T04:20:19.081Z,30.227
2023-05-19T04:25:15.776Z,30.227
2023-05-19T04:30:18.360Z,30.232
2023-05-19T04:35:19.122Z,30.232
2023-05-19T04:40:19.060Z,30.232
2023-05-19T04:45:18.970Z,30.228
2023-05-19T04:50:18.943Z,30.228
2023-05-19T04:55:19.022Z,30.228
2023-05-19T05:00:19.008Z,30.226
2023-05-19T05:05:19.102Z,30.226
2023-05-19T05:10:19.003Z,30.226
2023-05-19T05:15:19.012Z,30.221
2023-05-19T05:20:15.954Z,30.221
2023-05-19T05:25:15.949Z,30.221
2023-05-19T05:30:19.023Z,30.226
2023-05-19T05:35:18.998Z,30.226
2023-05-19T05:40:19.053Z,30.226
2023-05-19T05:45:18.991Z,30.226
2023-05-19T05:50:19.159Z,30.226
2023-05-19T05:55:19.015Z,30.226
2023-05-19T06:00:19.125Z,30.228
2023-05-19T06:05:19.097Z,30.228
2023-05-19T06:10:19.146Z,30.228
2023-05-19T06:15:16.018Z,30.225
2023-05-19T06:20:15.949Z,30.225
2023-05-19T06:25:19.092Z,30.225
2023-05-19T06:30:19.131Z,30.221
2023-05-19T06:35:19.115Z,30.221
2023-05-19T06:40:19.085Z,30.221
2023-05-19T06:45:19.137Z,30.219
2023-05-19T06:50:19.108Z,30.219
2023-05-19T06:55:19.122Z,30.219
2023-05-19T07:00:21.212Z,30.225
2023-05-19T07:05:19.155Z,30.225
2023-05-19T07:10:16.197Z,30.225
2023-05-19T07:15:16.148Z,30.223
2023-05-19T07:20:19.237Z,30.223
2023-05-19T07:25:19.154Z,30.223
2023-05-19T07:30:19.110Z,30.223
2023-05-19T07:35:19.265Z,30.223
2023-05-19T07:40:19.138Z,30.223
2023-05-19T07:45:19.134Z,30.224
2023-05-19T07:50:19.205Z,30.224
2023-05-19T07:55:19.226Z,30.224
2023-05-19T08:00:16.182Z,30.230
2023-05-19T08:05:16.061Z,30.230
2023-05-19T08:10:19.269Z,30.230
2023-05-19T08:15:16.253Z,30.232
2023-05-19T08:20:19.239Z,30.232
2023-05-19T08:25:19.216Z,30.232
2023-05-19T08:30:19.154Z,30.233
2023-05-19T08:35:19.300Z,30.233
2023-05-19T08:40:19.226Z,30.233
2023-05-19T08:45:19.268Z,30.232
2023-05-19T08:50:19.284Z,30.232
2023-05-19T08:55:16.325Z,30.232
2023-05-19T09:00:16.156Z,30.233
2023-05-19T09:05:19.327Z,30.233
2023-05-19T09:10:19.211Z,30.233
2023-05-19T09:15:19.413Z,30.234
2023-05-19T09:20:19.359Z,30.234
2023-05-19T09:25:19.251Z,30.234
2023-05-19T09:30:19.307Z,30.240
2023-05-19T09:35:19.308Z,30.240
2023-05-19T09:40:19.399Z,30.240
2023-05-19T09:45:19.268Z,30.247
2023-05-19T09:50:16.296Z,30.247
2023-05-19T09:55:16.698Z,30.247
2023-05-19T10:00:19.377Z,30.249
2023-05-19T10:05:19.495Z,30.249
2023-05-19T10:10:19.374Z,30.249
2023-05-19T10:15:29.528Z,30.252
2023-05-19T10:20:19.710Z,30.252
2023-05-19T10:25:19.350Z,30.252
2023-05-19T10:30:19.417Z,30.254
2023-05-19T10:35:19.365Z,30.254
2023-05-19T10:40:16.356Z,30.254
2023-05-19T10:45:16.386Z,30.262
2023-05-19T10:50:19.580Z,30.262
2023-05-19T10:55:19.789Z,30.262
2023-05-19T11:00:19.473Z,30.264
2023-05-19T11:05:19.564Z,30.264
2023-05-19T11:10:19.488Z,30.264
2023-05-19T11:15:19.504Z,30.264
2023-05-19T11:20:19.469Z,30.264
2023-05-19T11:25:19.587Z,30.264
2023-05-19T11:30:19.633Z,30.263
2023-05-19T11:35:16.515Z,30.263
2023-05-19T11:40:16.572Z,30.263
2023-05-19T11:45:19.534Z,30.264
2023-05-19T11:50:19.547Z,30.264
2023-05-19T11:55:19.598Z,30.264
2023-05-19T12:00:19.531Z,30.265
2023-05-19T12:05:19.780Z,30.265
2023-05-19T12:10:19.652Z,30.265
2023-05-19T12:15:19.624Z,30.264
2023-05-19T12:20:19.548Z,30.264
2023-05-19T12:25:19.675Z,30.264
2023-05-19T12:30:16.591Z,30.265
2023-05-19T12:35:19.639Z,30.265
2023-05-19T12:40:19.760Z,30.265
2023-05-19T12:45:19.702Z,30.264
2023-05-19T12:50:19.705Z,30.264
2023-05-19T12:55:19.651Z,30.264
2023-05-19T13:00:19.641Z,30.261
2023-05-19T13:05:19.706Z,30.261
2023-05-19T13:10:19.653Z,30.261
2023-05-19T13:15:19.803Z,30.261
2023-05-19T13:20:16.756Z,30.261
2023-05-19T13:25:16.674Z,30.261
2023-05-19T13:30:19.736Z,30.259
2023-05-19T13:35:19.719Z,30.259
2023-05-19T13:40:19.718Z,30.259
2023-05-19T13:45:19.824Z,30.257
2023-05-19T13:50:19.890Z,30.257
2023-05-19T13:55:19.790Z,30.257
2023-05-19T14:00:19.797Z,30.250
2023-05-19T14:05:19.772Z,30.250
2023-05-19T14:10:19.813Z,30.250
2023-05-19T14:15:16.731Z,30.246
2023-05-19T14:20:20.011Z,30.246
2023-05-19T14:25:19.880Z,30.246
2023-05-19T14:30:19.747Z,30.239
2023-05-19T14:35:19.901Z,30.239
2023-05-19T14:40:19.798Z,30.239
2023-05-19T14:45:19.849Z,30.240
2023-05-19T14:50:19.951Z,30.240
2023-05-19T14:55:19.848Z,30.240
2023-05-19T15:00:19.948Z,30.232
2023-05-19T15:05:16.828Z,30.232
2023-05-19T15:10:16.810Z,30.232
2023-05-19T15:15:20.217Z,30.226
2023-05-19T15:20:19.977Z,30.226
2023-05-19T15:25:19.904Z,30.226
2023-05-19T15:30:19.940Z,30.218
2023-05-19T15:35:19.953Z,30.218
2023-05-19T15:40:19.982Z,30.218
2023-05-19T15:45:19.973Z,30.216
2023-05-19T15:50:19.983Z,30.216
2023-05-19T15:55:20.093Z,30.216
2023-05-19T16:00:16.942Z,30.205
2023-05-19T16:05:16.800Z,30.205
2023-05-19T16:10:20.181Z,30.205
2023-05-19T16:15:19.931Z,30.200
2023-05-19T16:20:19.963Z,30.200
2023-05-19T16:25:20.103Z,30.200
2023-05-19T16:30:19.997Z,30.188
2023-05-19T16:35:20.072Z,30.188
2023-05-19T16:40:20.045Z,30.188
2023-05-19T16:45:20.070Z,30.186
2023-05-19T16:50:20.138Z,30.186
2023-05-19T16:55:16.943Z,30.186
2023-05-19T17:00:20.107Z,30.177
2023-05-19T17:05:20.019Z,30.177
2023-05-19T17:10:20.067Z,30.177
2023-05-19T17:15:20.079Z,30.170
2023-05-19T17:20:19.999Z,30.170
2023-05-19T17:25:19.981Z,30.170
2023-05-19T17:30:20.062Z,30.164
2023-05-19T17:35:20.025Z,30.164
2023-05-19T17:40:20.052Z,30.164
2023-05-19T17:45:17.049Z,30.156
2023-05-19T17:50:17.039Z,30.156
2023-05-19T17:55:20.236Z,30.156
2023-05-19T18:00:20.147Z,30.153
2023-05-19T18:05:20.158Z,30.153
2023-05-19T18:10:20.216Z,30.153
2023-05-19T18:15:20.102Z,30.152
2023-05-19T18:20:20.154Z,30.152
2023-05-19T18:25:20.155Z,30.152
2023-05-19T18:30:20.112Z,30.141
2023-05-19T18:35:20.107Z,30.141
2023-05-19T18:40:17.093Z,30.141
2023-05-19T18:45:20.102Z,30.137
2023-05-19T18:50:20.359Z,30.137
2023-05-19T18:55:20.189Z,30.137
2023-05-19T19:00:20.122Z,30.134
2023-05-19T19:05:20.287Z,30.134
2023-05-19T19:10:20.186Z,30.134
2023-05-19T19:15:20.211Z,30.132
2023-05-19T19:20:20.230Z,30.132
2023-05-19T19:25:22.573Z,30.132
2023-05-19T19:30:17.115Z,30.123
2023-05-19T19:35:17.167Z,30.123
2023-05-19T19:40:20.249Z,30.123
2023-05-19T19:45:20.155Z,30.122
2023-05-19T19:50:20.273Z,30.122
2023-05-19T19:55:20.310Z,30.122
2023-05-19T20:00:20.163Z,30.115
2023-05-19T20:05:20.187Z,30.115
2023-05-19T20:10:20.417Z,30.115
2023-05-19T20:15:20.216Z,30.107
2023-05-19T20:20:20.515Z,30.107
2023-05-19T20:25:17.197Z,30.107
2023-05-19T20:30:17.288Z,30.108
2023-05-19T20:35:20.541Z,30.108
2023-05-19T20:40:20.241Z,30.108
2023-05-19T20:45:20.563Z,30.107
2023-05-19T20:50:20.373Z,30.107
2023-05-19T20:55:20.415Z,30.107
2023-05-19T21:00:20.352Z,30.105
2023-05-19T21:05:20.483Z,30.105
2023-05-19T21:10:20.270Z,30.105
2023-05-19T21:15:20.296Z,30.096
2023-05-19T21:20:17.547Z,30.096
2023-05-19T21:25:20.482Z,30.096
2023-05-19T21:30:20.394Z,30.095
2023-05-19T21:35:20.291Z,30.095
2023-05-19T21:40:20.423Z,30.095
2023-05-19T21:45:20.445Z,30.091
2023-05-19T21:50:20.706Z,30.091
2023-05-19T21:55:20.382Z,30.091
2023-05-19T22:00:20.477Z,30.094
2023-05-19T22:05:20.359Z,30.094
2023-05-19T22:10:17.448Z,30.094
2023-05-19T22:15:17.410Z,30.094
2023-05-19T22:20:20.655Z,30.094
2023-05-19T22:25:20.472Z,30.094
2023-05-19T22:30:20.386Z,30.093
2023-05-19T22:35:20.532Z,30.093
2023-05-19T22:40:20.357Z,30.093
2023-05-19T22:45:20.384Z,30.096
2023-05-19T22:50:20.534Z,30.096
2023-05-19T22:55:20.476Z,30.096
2023-05-19T23:00:20.722Z,30.098
2023-05-19T23:05:17.418Z,30.098
2023-05-19T23:10:17.377Z,30.098
2023-05-19T23:15:20.410Z,30.105
2023-05-19T23:20:20.609Z,30.105
2023-05-19T23:25:20.573Z,30.105
2023-05-19T23:30:20.546Z,30.106
2023-05-19T23:35:20.670Z,30.106
2023-05-19T23:40:20.505Z,30.106
2023-05-19T23:45:20.695Z,30.107
2023-05-19T23:50:20.543Z,30.107
2023-05-19T23:55:17.433Z,30.107
